sensor_id;sensor_type;location;lat;lon;timestamp;P1;durP1;ratioP1;P2;durP2;ratioP2
16270;SDS011;8243;49.048;8.396;2023-04-25T00:01:21;3.97;;;3.67;;
16270;SDS011;8243;49.048;8.396;2023-04-25T00:03:47;4.90;;;3.67;;
16270;SDS011;8243;49.048;8.396;2023-04-25T00:06:13;4.07;;;3.60;;
16270;SDS011;8243;49.048;8.396;2023-04-25T00:08:39;4.30;;;4.00;;
16270;SDS011;8243;49.048;8.396;2023-04-25T00:11:04;4.70;;;4.30;;
16270;SDS011;8243;49.048;8.396;2023-04-25T00:13:31;4.90;;;4.20;;
16270;SDS011;8243;49.048;8.396;2023-04-25T00:15:58;6.40;;;4.40;;
16270;SDS011;8243;49.048;8.396;2023-04-25T00:18:25;5.10;;;4.60;;
16270;SDS011;8243;49.048;8.396;2023-04-25T00:20:54;5.53;;;4.77;;
16270;SDS011;8243;49.048;8.396;2023-04-25T00:23:20;5.83;;;4.70;;
16270;SDS011;8243;49.048;8.396;2023-04-25T00:25:49;5.37;;;4.87;;
16270;SDS011;8243;49.048;8.396;2023-04-25T00:28:15;5.17;;;4.67;;
16270;SDS011;8243;49.048;8.396;2023-04-25T00:30:41;5.07;;;4.57;;
16270;SDS011;8243;49.048;8.396;2023-04-25T00:33:08;5.80;;;5.20;;
16270;SDS011;8243;49.048;8.396;2023-04-25T00:35:34;4.73;;;4.33;;
16270;SDS011;8243;49.048;8.396;2023-04-25T00:38:00;6.10;;;4.80;;
16270;SDS011;8243;49.048;8.396;2023-04-25T00:40:26;5.57;;;4.33;;
16270;SDS011;8243;49.048;8.396;2023-04-25T00:42:52;6.47;;;4.93;;
16270;SDS011;8243;49.048;8.396;2023-04-25T00:45:18;4.80;;;4.40;;
16270;SDS011;8243;49.048;8.396;2023-04-25T00:47:44;4.70;;;4.30;;
16270;SDS011;8243;49.048;8.396;2023-04-25T00:50:10;5.10;;;4.70;;
16270;SDS011;8243;49.048;8.396;2023-04-25T00:52:40;4.83;;;4.30;;
16270;SDS011;8243;49.048;8.396;2023-04-25T00:55:08;4.93;;;4.43;;
16270;SDS011;8243;49.048;8.396;2023-04-25T00:57:35;5.83;;;4.20;;
16270;SDS011;8243;49.048;8.396;2023-04-25T01:00:01;6.70;;;4.50;;
16270;SDS011;8243;49.048;8.396;2023-04-25T01:02:28;5.43;;;4.47;;
16270;SDS011;8243;49.048;8.396;2023-04-25T01:04:54;4.63;;;4.23;;
16270;SDS011;8243;49.048;8.396;2023-04-25T01:07:19;5.00;;;4.50;;
16270;SDS011;8243;49.048;8.396;2023-04-25T01:09:45;5.17;;;4.40;;
16270;SDS011;8243;49.048;8.396;2023-04-25T01:12:11;4.33;;;3.97;;
16270;SDS011;8243;49.048;8.396;2023-04-25T01:14:37;5.03;;;4.13;;
16270;SDS011;8243;49.048;8.396;2023-04-25T01:17:03;4.67;;;4.27;;
16270;SDS011;8243;49.048;8.396;2023-04-25T01:19:29;4.90;;;4.50;;
16270;SDS011;8243;49.048;8.396;2023-04-25T01:21:55;4.83;;;4.43;;
16270;SDS011;8243;49.048;8.396;2023-04-25T01:24:21;5.10;;;4.60;;
16270;SDS011;8243;49.048;8.396;2023-04-25T01:26:47;5.13;;;4.70;;
16270;SDS011;8243;49.048;8.396;2023-04-25T01:29:17;4.47;;;4.07;;
16270;SDS011;8243;49.048;8.396;2023-04-25T01:31:44;5.03;;;4.53;;
16270;SDS011;8243;49.048;8.396;2023-04-25T01:34:11;4.53;;;4.13;;
16270;SDS011;8243;49.048;8.396;2023-04-25T01:36:37;4.60;;;4.20;;
16270;SDS011;8243;49.048;8.396;2023-04-25T01:39:03;5.00;;;4.60;;
16270;SDS011;8243;49.048;8.396;2023-04-25T01:41:28;5.27;;;4.77;;
16270;SDS011;8243;49.048;8.396;2023-04-25T01:43:54;4.70;;;4.20;;
16270;SDS011;8243;49.048;8.396;2023-04-25T01:46:20;5.60;;;4.90;;
16270;SDS011;8243;49.048;8.396;2023-04-25T01:48:45;4.77;;;4.37;;
16270;SDS011;8243;49.048;8.396;2023-04-25T01:51:11;4.63;;;4.23;;
16270;SDS011;8243;49.048;8.396;2023-04-25T01:53:37;4.70;;;4.30;;
16270;SDS011;8243;49.048;8.396;2023-04-25T01:56:04;5.00;;;4.50;;
16270;SDS011;8243;49.048;8.396;2023-04-25T01:58:30;4.73;;;4.33;;
16270;SDS011;8243;49.048;8.396;2023-04-25T02:00:55;4.50;;;4.10;;
16270;SDS011;8243;49.048;8.396;2023-04-25T02:03:21;6.13;;;4.63;;
16270;SDS011;8243;49.048;8.396;2023-04-25T02:05:46;5.40;;;4.67;;
16270;SDS011;8243;49.048;8.396;2023-04-25T02:08:12;5.10;;;4.60;;
16270;SDS011;8243;49.048;8.396;2023-04-25T02:10:38;5.30;;;4.80;;
16270;SDS011;8243;49.048;8.396;2023-04-25T02:13:04;5.90;;;4.37;;
16270;SDS011;8243;49.048;8.396;2023-04-25T02:15:30;6.60;;;5.37;;
16270;SDS011;8243;49.048;8.396;2023-04-25T02:17:56;5.30;;;4.77;;
16270;SDS011;8243;49.048;8.396;2023-04-25T02:20:22;4.90;;;4.43;;
16270;SDS011;8243;49.048;8.396;2023-04-25T02:22:48;6.00;;;5.13;;
16270;SDS011;8243;49.048;8.396;2023-04-25T02:25:14;5.47;;;4.97;;
16270;SDS011;8243;49.048;8.396;2023-04-25T02:27:41;5.37;;;4.87;;
16270;SDS011;8243;49.048;8.396;2023-04-25T02:30:07;5.60;;;4.97;;
16270;SDS011;8243;49.048;8.396;2023-04-25T02:32:33;5.73;;;5.13;;
16270;SDS011;8243;49.048;8.396;2023-04-25T02:34:59;6.33;;;5.50;;
16270;SDS011;8243;49.048;8.396;2023-04-25T02:37:31;5.90;;;5.37;;
16270;SDS011;8243;49.048;8.396;2023-04-25T02:40:00;6.10;;;5.37;;
16270;SDS011;8243;49.048;8.396;2023-04-25T02:42:27;5.90;;;5.40;;
16270;SDS011;8243;49.048;8.396;2023-04-25T02:44:53;6.40;;;5.80;;
16270;SDS011;8243;49.048;8.396;2023-04-25T02:47:18;6.47;;;5.57;;
16270;SDS011;8243;49.048;8.396;2023-04-25T02:49:44;8.30;;;5.80;;
16270;SDS011;8243;49.048;8.396;2023-04-25T02:52:11;5.90;;;5.40;;
16270;SDS011;8243;49.048;8.396;2023-04-25T02:54:37;6.83;;;5.50;;
16270;SDS011;8243;49.048;8.396;2023-04-25T02:57:03;6.00;;;5.40;;
16270;SDS011;8243;49.048;8.396;2023-04-25T02:59:28;6.23;;;5.63;;
16270;SDS011;8243;49.048;8.396;2023-04-25T03:01:54;6.47;;;5.87;;
16270;SDS011;8243;49.048;8.396;2023-04-25T03:04:19;7.17;;;5.77;;
16270;SDS011;8243;49.048;8.396;2023-04-25T03:06:45;6.30;;;5.70;;
16270;SDS011;8243;49.048;8.396;2023-04-25T03:09:11;6.13;;;5.53;;
16270;SDS011;8243;49.048;8.396;2023-04-25T03:11:38;6.37;;;5.73;;
16270;SDS011;8243;49.048;8.396;2023-04-25T03:14:04;6.00;;;5.50;;
16270;SDS011;8243;49.048;8.396;2023-04-25T03:16:29;6.73;;;6.03;;
16270;SDS011;8243;49.048;8.396;2023-04-25T03:18:55;6.90;;;6.20;;
16270;SDS011;8243;49.048;8.396;2023-04-25T03:21:21;6.77;;;6.17;;
16270;SDS011;8243;49.048;8.396;2023-04-25T03:23:47;6.03;;;5.43;;
16270;SDS011;8243;49.048;8.396;2023-04-25T03:26:12;6.63;;;5.93;;
16270;SDS011;8243;49.048;8.396;2023-04-25T03:28:38;6.90;;;6.27;;
16270;SDS011;8243;49.048;8.396;2023-04-25T03:31:05;7.50;;;6.10;;
16270;SDS011;8243;49.048;8.396;2023-04-25T03:33:30;6.43;;;5.83;;
16270;SDS011;8243;49.048;8.396;2023-04-25T03:35:56;5.90;;;5.40;;
16270;SDS011;8243;49.048;8.396;2023-04-25T03:38:21;6.53;;;5.93;;
16270;SDS011;8243;49.048;8.396;2023-04-25T03:40:48;6.23;;;5.73;;
16270;SDS011;8243;49.048;8.396;2023-04-25T03:43:13;6.47;;;5.70;;
16270;SDS011;8243;49.048;8.396;2023-04-25T03:45:39;6.10;;;5.60;;
16270;SDS011;8243;49.048;8.396;2023-04-25T03:48:05;6.37;;;5.77;;
16270;SDS011;8243;49.048;8.396;2023-04-25T03:50:30;6.70;;;6.00;;
16270;SDS011;8243;49.048;8.396;2023-04-25T03:52:56;6.77;;;6.20;;
16270;SDS011;8243;49.048;8.396;2023-04-25T03:55:21;6.70;;;6.00;;
16270;SDS011;8243;49.048;8.396;2023-04-25T03:57:47;7.30;;;6.43;;
16270;SDS011;8243;49.048;8.396;2023-04-25T04:00:12;6.93;;;6.33;;
16270;SDS011;8243;49.048;8.396;2023-04-25T04:02:39;6.97;;;5.80;;
16270;SDS011;8243;49.048;8.396;2023-04-25T04:05:04;6.20;;;5.70;;
16270;SDS011;8243;49.048;8.396;2023-04-25T04:07:30;6.87;;;6.27;;
16270;SDS011;8243;49.048;8.396;2023-04-25T04:09:57;6.63;;;6.03;;
16270;SDS011;8243;49.048;8.396;2023-04-25T04:12:23;7.10;;;6.07;;
16270;SDS011;8243;49.048;8.396;2023-04-25T04:14:49;7.13;;;6.43;;
16270;SDS011;8243;49.048;8.396;2023-04-25T04:17:14;6.83;;;6.23;;
16270;SDS011;8243;49.048;8.396;2023-04-25T04:19:40;6.43;;;5.83;;
16270;SDS011;8243;49.048;8.396;2023-04-25T04:22:06;8.23;;;5.47;;
16270;SDS011;8243;49.048;8.396;2023-04-25T04:24:31;6.73;;;5.80;;
16270;SDS011;8243;49.048;8.396;2023-04-25T04:26:57;6.13;;;5.60;;
16270;SDS011;8243;49.048;8.396;2023-04-25T04:29:23;6.50;;;5.90;;
16270;SDS011;8243;49.048;8.396;2023-04-25T04:31:50;6.17;;;5.57;;
16270;SDS011;8243;49.048;8.396;2023-04-25T04:34:16;6.03;;;5.43;;
16270;SDS011;8243;49.048;8.396;2023-04-25T04:36:43;6.50;;;5.90;;
16270;SDS011;8243;49.048;8.396;2023-04-25T04:39:11;7.87;;;5.67;;
16270;SDS011;8243;49.048;8.396;2023-04-25T04:41:37;6.47;;;5.80;;
16270;SDS011;8243;49.048;8.396;2023-04-25T04:44:02;6.70;;;5.70;;
16270;SDS011;8243;49.048;8.396;2023-04-25T04:46:28;6.20;;;5.70;;
16270;SDS011;8243;49.048;8.396;2023-04-25T04:48:55;6.20;;;5.60;;
16270;SDS011;8243;49.048;8.396;2023-04-25T04:51:21;5.63;;;5.20;;
16270;SDS011;8243;49.048;8.396;2023-04-25T04:53:46;8.40;;;5.00;;
16270;SDS011;8243;49.048;8.396;2023-04-25T04:56:12;5.90;;;5.30;;
16270;SDS011;8243;49.048;8.396;2023-04-25T04:58:37;7.00;;;6.10;;
16270;SDS011;8243;49.048;8.396;2023-04-25T05:01:03;6.60;;;5.63;;
16270;SDS011;8243;49.048;8.396;2023-04-25T05:03:29;5.77;;;5.13;;
16270;SDS011;8243;49.048;8.396;2023-04-25T05:05:54;5.87;;;5.30;;
16270;SDS011;8243;49.048;8.396;2023-04-25T05:08:20;5.83;;;5.30;;
16270;SDS011;8243;49.048;8.396;2023-04-25T05:10:45;5.97;;;5.30;;
16270;SDS011;8243;49.048;8.396;2023-04-25T05:13:11;5.83;;;5.23;;
16270;SDS011;8243;49.048;8.396;2023-04-25T05:15:36;8.03;;;5.63;;
16270;SDS011;8243;49.048;8.396;2023-04-25T05:18:02;5.53;;;4.83;;
16270;SDS011;8243;49.048;8.396;2023-04-25T05:20:28;5.37;;;4.87;;
16270;SDS011;8243;49.048;8.396;2023-04-25T05:22:53;7.07;;;5.23;;
16270;SDS011;8243;49.048;8.396;2023-04-25T05:25:19;5.03;;;4.60;;
16270;SDS011;8243;49.048;8.396;2023-04-25T05:27:45;7.50;;;5.60;;
16270;SDS011;8243;49.048;8.396;2023-04-25T05:30:10;6.20;;;5.60;;
16270;SDS011;8243;49.048;8.396;2023-04-25T05:32:36;6.33;;;5.00;;
16270;SDS011;8243;49.048;8.396;2023-04-25T05:35:02;5.80;;;5.30;;
16270;SDS011;8243;49.048;8.396;2023-04-25T05:37:27;8.07;;;5.30;;
16270;SDS011;8243;49.048;8.396;2023-04-25T05:39:55;6.37;;;5.07;;
16270;SDS011;8243;49.048;8.396;2023-04-25T05:42:21;5.40;;;5.00;;
16270;SDS011;8243;49.048;8.396;2023-04-25T05:44:46;5.30;;;4.90;;
16270;SDS011;8243;49.048;8.396;2023-04-25T05:47:11;5.37;;;4.87;;
16270;SDS011;8243;49.048;8.396;2023-04-25T05:49:37;6.00;;;5.03;;
16270;SDS011;8243;49.048;8.396;2023-04-25T05:52:03;5.63;;;5.13;;
16270;SDS011;8243;49.048;8.396;2023-04-25T05:54:28;5.30;;;4.80;;
16270;SDS011;8243;49.048;8.396;2023-04-25T05:56:55;5.40;;;4.90;;
16270;SDS011;8243;49.048;8.396;2023-04-25T05:59:21;5.20;;;4.67;;
16270;SDS011;8243;49.048;8.396;2023-04-25T06:01:47;5.23;;;4.73;;
16270;SDS011;8243;49.048;8.396;2023-04-25T06:04:12;7.20;;;5.07;;
16270;SDS011;8243;49.048;8.396;2023-04-25T06:06:38;5.33;;;4.80;;
16270;SDS011;8243;49.048;8.396;2023-04-25T06:09:03;5.37;;;4.80;;
16270;SDS011;8243;49.048;8.396;2023-04-25T06:11:29;5.03;;;4.30;;
16270;SDS011;8243;49.048;8.396;2023-04-25T06:13:55;6.47;;;4.80;;
16270;SDS011;8243;49.048;8.396;2023-04-25T06:16:20;5.37;;;4.87;;
16270;SDS011;8243;49.048;8.396;2023-04-25T06:18:46;5.87;;;4.87;;
16270;SDS011;8243;49.048;8.396;2023-04-25T06:21:11;5.90;;;4.03;;
16270;SDS011;8243;49.048;8.396;2023-04-25T06:23:37;5.57;;;4.40;;
16270;SDS011;8243;49.048;8.396;2023-04-25T06:26:02;5.10;;;4.60;;
16270;SDS011;8243;49.048;8.396;2023-04-25T06:28:28;7.27;;;5.20;;
16270;SDS011;8243;49.048;8.396;2023-04-25T06:30:54;5.53;;;5.03;;
16270;SDS011;8243;49.048;8.396;2023-04-25T06:33:19;8.10;;;5.43;;
16270;SDS011;8243;49.048;8.396;2023-04-25T06:35:46;5.73;;;5.13;;
16270;SDS011;8243;49.048;8.396;2023-04-25T06:38:11;6.13;;;5.20;;
16270;SDS011;8243;49.048;8.396;2023-04-25T06:40:37;5.80;;;5.30;;
16270;SDS011;8243;49.048;8.396;2023-04-25T06:43:03;6.57;;;5.97;;
16270;SDS011;8243;49.048;8.396;2023-04-25T06:45:29;7.97;;;7.20;;
16270;SDS011;8243;49.048;8.396;2023-04-25T06:47:55;6.57;;;5.97;;
16270;SDS011;8243;49.048;8.396;2023-04-25T06:50:20;5.90;;;5.40;;
16270;SDS011;8243;49.048;8.396;2023-04-25T06:52:46;6.53;;;6.00;;
16270;SDS011;8243;49.048;8.396;2023-04-25T06:55:12;6.90;;;6.20;;
16270;SDS011;8243;49.048;8.396;2023-04-25T06:57:37;6.40;;;5.80;;
16270;SDS011;8243;49.048;8.396;2023-04-25T07:00:03;6.90;;;6.30;;
16270;SDS011;8243;49.048;8.396;2023-04-25T07:02:36;6.47;;;5.80;;
16270;SDS011;8243;49.048;8.396;2023-04-25T07:05:02;6.23;;;5.63;;
16270;SDS011;8243;49.048;8.396;2023-04-25T07:07:29;5.97;;;5.40;;
16270;SDS011;8243;49.048;8.396;2023-04-25T07:09:55;6.27;;;5.67;;
16270;SDS011;8243;49.048;8.396;2023-04-25T07:12:21;6.43;;;5.87;;
16270;SDS011;8243;49.048;8.396;2023-04-25T07:14:46;6.10;;;5.60;;
16270;SDS011;8243;49.048;8.396;2023-04-25T07:17:12;7.03;;;5.77;;
16270;SDS011;8243;49.048;8.396;2023-04-25T07:19:37;6.47;;;5.83;;
16270;SDS011;8243;49.048;8.396;2023-04-25T07:22:04;6.80;;;6.13;;
16270;SDS011;8243;49.048;8.396;2023-04-25T07:24:30;7.13;;;6.47;;
16270;SDS011;8243;49.048;8.396;2023-04-25T07:26:56;7.27;;;6.67;;
16270;SDS011;8243;49.048;8.396;2023-04-25T07:29:22;7.10;;;6.40;;
16270;SDS011;8243;49.048;8.396;2023-04-25T07:31:48;7.23;;;6.50;;
16270;SDS011;8243;49.048;8.396;2023-04-25T07:34:14;6.80;;;6.20;;
16270;SDS011;8243;49.048;8.396;2023-04-25T07:36:40;6.73;;;6.13;;
16270;SDS011;8243;49.048;8.396;2023-04-25T07:39:06;6.27;;;5.77;;
16270;SDS011;8243;49.048;8.396;2023-04-25T07:41:32;6.50;;;5.90;;
16270;SDS011;8243;49.048;8.396;2023-04-25T07:43:58;7.50;;;6.50;;
16270;SDS011;8243;49.048;8.396;2023-04-25T07:46:23;7.10;;;6.50;;
16270;SDS011;8243;49.048;8.396;2023-04-25T07:48:49;6.60;;;5.83;;
16270;SDS011;8243;49.048;8.396;2023-04-25T07:51:14;7.43;;;6.63;;
16270;SDS011;8243;49.048;8.396;2023-04-25T07:53:40;7.40;;;6.70;;
16270;SDS011;8243;49.048;8.396;2023-04-25T07:56:05;7.60;;;6.90;;
16270;SDS011;8243;49.048;8.396;2023-04-25T07:58:31;7.63;;;6.27;;
16270;SDS011;8243;49.048;8.396;2023-04-25T08:00:57;7.53;;;6.83;;
16270;SDS011;8243;49.048;8.396;2023-04-25T08:03:22;6.87;;;6.23;;
16270;SDS011;8243;49.048;8.396;2023-04-25T08:05:48;7.07;;;6.37;;
16270;SDS011;8243;49.048;8.396;2023-04-25T08:08:13;7.87;;;6.97;;
16270;SDS011;8243;49.048;8.396;2023-04-25T08:10:39;7.67;;;7.07;;
16270;SDS011;8243;49.048;8.396;2023-04-25T08:13:05;7.13;;;6.53;;
16270;SDS011;8243;49.048;8.396;2023-04-25T08:15:30;9.43;;;8.50;;
16270;SDS011;8243;49.048;8.396;2023-04-25T08:17:56;9.93;;;8.90;;
16270;SDS011;8243;49.048;8.396;2023-04-25T08:20:21;10.10;;;9.10;;
16270;SDS011;8243;49.048;8.396;2023-04-25T08:22:47;9.23;;;8.30;;
16270;SDS011;8243;49.048;8.396;2023-04-25T08:25:13;8.13;;;7.33;;
16270;SDS011;8243;49.048;8.396;2023-04-25T08:27:39;8.00;;;7.30;;
16270;SDS011;8243;49.048;8.396;2023-04-25T08:30:05;7.83;;;7.13;;
16270;SDS011;8243;49.048;8.396;2023-04-25T08:32:33;9.03;;;8.23;;
16270;SDS011;8243;49.048;8.396;2023-04-25T08:34:58;8.97;;;8.17;;
16270;SDS011;8243;49.048;8.396;2023-04-25T08:37:24;11.50;;;8.67;;
16270;SDS011;8243;49.048;8.396;2023-04-25T08:39:49;9.07;;;8.27;;
16270;SDS011;8243;49.048;8.396;2023-04-25T08:42:18;8.53;;;7.73;;
16270;SDS011;8243;49.048;8.396;2023-04-25T08:44:46;9.20;;;8.40;;
16270;SDS011;8243;49.048;8.396;2023-04-25T08:47:13;10.40;;;8.20;;
16270;SDS011;8243;49.048;8.396;2023-04-25T08:49:39;8.37;;;7.57;;
16270;SDS011;8243;49.048;8.396;2023-04-25T08:52:08;8.63;;;7.33;;
16270;SDS011;8243;49.048;8.396;2023-04-25T08:54:35;8.37;;;7.47;;
16270;SDS011;8243;49.048;8.396;2023-04-25T08:57:02;9.53;;;8.57;;
16270;SDS011;8243;49.048;8.396;2023-04-25T08:59:30;9.63;;;8.63;;
16270;SDS011;8243;49.048;8.396;2023-04-25T09:01:57;10.70;;;9.57;;
16270;SDS011;8243;49.048;8.396;2023-04-25T09:04:22;9.93;;;9.03;;
16270;SDS011;8243;49.048;8.396;2023-04-25T09:06:48;10.70;;;9.50;;
16270;SDS011;8243;49.048;8.396;2023-04-25T09:09:13;11.27;;;10.17;;
16270;SDS011;8243;49.048;8.396;2023-04-25T09:11:39;11.10;;;10.00;;
16270;SDS011;8243;49.048;8.396;2023-04-25T09:16:57;11.00;;;9.50;;
16270;SDS011;8243;49.048;8.396;2023-04-25T09:19:25;11.67;;;9.93;;
16270;SDS011;8243;49.048;8.396;2023-04-25T09:21:59;11.03;;;10.00;;
16270;SDS011;8243;49.048;8.396;2023-04-25T09:24:36;13.17;;;10.27;;
16270;SDS011;8243;49.048;8.396;2023-04-25T09:27:05;12.43;;;10.13;;
16270;SDS011;8243;49.048;8.396;2023-04-25T09:29:33;12.53;;;10.30;;
16270;SDS011;8243;49.048;8.396;2023-04-25T09:32:19;15.30;;;12.13;;
16270;SDS011;8243;49.048;8.396;2023-04-25T09:34:47;15.30;;;11.93;;
16270;SDS011;8243;49.048;8.396;2023-04-25T09:37:17;19.00;;;13.00;;
16270;SDS011;8243;49.048;8.396;2023-04-25T09:39:47;13.77;;;12.37;;
16270;SDS011;8243;49.048;8.396;2023-04-25T09:42:17;18.60;;;12.27;;
16270;SDS011;8243;49.048;8.396;2023-04-25T09:44:46;16.33;;;12.70;;
16270;SDS011;8243;49.048;8.396;2023-04-25T09:47:13;15.53;;;13.17;;
16270;SDS011;8243;49.048;8.396;2023-04-25T09:49:40;15.87;;;13.50;;
16270;SDS011;8243;49.048;8.396;2023-04-25T09:52:13;15.17;;;13.17;;
16270;SDS011;8243;49.048;8.396;2023-04-25T09:54:44;20.37;;;15.73;;
16270;SDS011;8243;49.048;8.396;2023-04-25T09:57:11;21.47;;;15.63;;
16270;SDS011;8243;49.048;8.396;2023-04-25T09:59:39;20.00;;;14.57;;
16270;SDS011;8243;49.048;8.396;2023-04-25T10:02:08;17.43;;;13.83;;
16270;SDS011;8243;49.048;8.396;2023-04-25T10:04:35;20.03;;;14.40;;
16270;SDS011;8243;49.048;8.396;2023-04-25T10:07:03;19.93;;;15.30;;
16270;SDS011;8243;49.048;8.396;2023-04-25T10:09:31;17.27;;;14.00;;
16270;SDS011;8243;49.048;8.396;2023-04-25T10:12:00;17.80;;;13.17;;
16270;SDS011;8243;49.048;8.396;2023-04-25T10:14:26;17.37;;;13.23;;
16270;SDS011;8243;49.048;8.396;2023-04-25T10:17:02;15.97;;;12.87;;
16270;SDS011;8243;49.048;8.396;2023-04-25T10:19:28;14.50;;;12.50;;
16270;SDS011;8243;49.048;8.396;2023-04-25T10:22:00;16.63;;;12.37;;
16270;SDS011;8243;49.048;8.396;2023-04-25T10:24:48;14.83;;;13.10;;
16270;SDS011;8243;49.048;8.396;2023-04-25T10:27:15;17.27;;;12.20;;
16270;SDS011;8243;49.048;8.396;2023-04-25T10:29:41;17.30;;;11.20;;
16270;SDS011;8243;49.048;8.396;2023-04-25T10:32:10;13.47;;;10.63;;
16270;SDS011;8243;49.048;8.396;2023-04-25T10:34:44;12.77;;;10.63;;
16270;SDS011;8243;49.048;8.396;2023-04-25T10:37:13;13.40;;;9.87;;
16270;SDS011;8243;49.048;8.396;2023-04-25T10:39:39;14.80;;;9.67;;
16270;SDS011;8243;49.048;8.396;2023-04-25T10:42:06;14.87;;;9.17;;
16270;SDS011;8243;49.048;8.396;2023-04-25T10:44:36;13.37;;;8.23;;
16270;SDS011;8243;49.048;8.396;2023-04-25T10:47:03;13.30;;;8.73;;
16270;SDS011;8243;49.048;8.396;2023-04-25T10:49:34;12.17;;;7.80;;
16270;SDS011;8243;49.048;8.396;2023-04-25T10:52:14;13.40;;;8.57;;
16270;SDS011;8243;49.048;8.396;2023-04-25T10:54:56;12.97;;;8.83;;
16270;SDS011;8243;49.048;8.396;2023-04-25T10:57:29;15.57;;;9.47;;
16270;SDS011;8243;49.048;8.396;2023-04-25T11:00:18;14.00;;;8.20;;
16270;SDS011;8243;49.048;8.396;2023-04-25T11:02:48;12.73;;;8.53;;
16270;SDS011;8243;49.048;8.396;2023-04-25T11:05:19;14.50;;;9.07;;
16270;SDS011;8243;49.048;8.396;2023-04-25T11:10:19;13.50;;;9.10;;
16270;SDS011;8243;49.048;8.396;2023-04-25T11:12:45;13.10;;;9.40;;
16270;SDS011;8243;49.048;8.396;2023-04-25T11:15:11;8.33;;;6.53;;
16270;SDS011;8243;49.048;8.396;2023-04-25T11:17:37;8.70;;;5.83;;
16270;SDS011;8243;49.048;8.396;2023-04-25T11:20:05;7.20;;;6.50;;
16270;SDS011;8243;49.048;8.396;2023-04-25T11:22:36;8.83;;;6.50;;
16270;SDS011;8243;49.048;8.396;2023-04-25T11:25:10;6.97;;;6.17;;
16270;SDS011;8243;49.048;8.396;2023-04-25T11:27:38;9.10;;;6.87;;
16270;SDS011;8243;49.048;8.396;2023-04-25T11:30:14;7.50;;;6.73;;
16270;SDS011;8243;49.048;8.396;2023-04-25T11:32:40;9.50;;;7.40;;
16270;SDS011;8243;49.048;8.396;2023-04-25T11:35:08;9.00;;;7.10;;
16270;SDS011;8243;49.048;8.396;2023-04-25T11:37:38;9.23;;;7.70;;
16270;SDS011;8243;49.048;8.396;2023-04-25T11:40:07;8.50;;;7.67;;
16270;SDS011;8243;49.048;8.396;2023-04-25T11:42:36;8.97;;;7.63;;
16270;SDS011;8243;49.048;8.396;2023-04-25T11:45:08;8.83;;;7.60;;
16270;SDS011;8243;49.048;8.396;2023-04-25T11:47:34;8.10;;;7.23;;
16270;SDS011;8243;49.048;8.396;2023-04-25T11:50:01;10.40;;;7.30;;
16270;SDS011;8243;49.048;8.396;2023-04-25T11:53:01;13.27;;;7.83;;
16270;SDS011;8243;49.048;8.396;2023-04-25T11:55:21;10.70;;;8.37;;
16270;SDS011;8243;49.048;8.396;2023-04-25T11:57:47;10.30;;;8.63;;
16270;SDS011;8243;49.048;8.396;2023-04-25T12:00:16;9.80;;;8.80;;
16270;SDS011;8243;49.048;8.396;2023-04-25T12:02:44;11.27;;;8.47;;
16270;SDS011;8243;49.048;8.396;2023-04-25T12:05:11;13.13;;;8.77;;
16270;SDS011;8243;49.048;8.396;2023-04-25T12:07:38;9.50;;;7.37;;
16270;SDS011;8243;49.048;8.396;2023-04-25T12:10:04;11.23;;;8.07;;
16270;SDS011;8243;49.048;8.396;2023-04-25T12:12:33;7.20;;;6.40;;
16270;SDS011;8243;49.048;8.396;2023-04-25T12:17:40;9.10;;;6.77;;
16270;SDS011;8243;49.048;8.396;2023-04-25T12:20:13;7.43;;;6.23;;
16270;SDS011;8243;49.048;8.396;2023-04-25T12:22:44;9.27;;;6.53;;
16270;SDS011;8243;49.048;8.396;2023-04-25T12:25:12;8.07;;;6.23;;
16270;SDS011;8243;49.048;8.396;2023-04-25T12:31:01;6.57;;;4.97;;
16270;SDS011;8243;49.048;8.396;2023-04-25T12:33:29;5.90;;;5.30;;
16270;SDS011;8243;49.048;8.396;2023-04-25T12:35:58;6.10;;;5.50;;
16270;SDS011;8243;49.048;8.396;2023-04-25T12:41:00;7.93;;;5.50;;
16270;SDS011;8243;49.048;8.396;2023-04-25T12:43:26;7.60;;;4.70;;
16270;SDS011;8243;49.048;8.396;2023-04-25T12:45:52;6.93;;;5.03;;
16270;SDS011;8243;49.048;8.396;2023-04-25T12:48:18;5.77;;;4.13;;
16270;SDS011;8243;49.048;8.396;2023-04-25T12:50:44;5.33;;;3.87;;
16270;SDS011;8243;49.048;8.396;2023-04-25T12:53:13;4.77;;;4.33;;
16270;SDS011;8243;49.048;8.396;2023-04-25T12:55:39;5.60;;;4.20;;
16270;SDS011;8243;49.048;8.396;2023-04-25T12:58:05;4.50;;;4.10;;
16270;SDS011;8243;49.048;8.396;2023-04-25T13:00:31;4.20;;;3.90;;
16270;SDS011;8243;49.048;8.396;2023-04-25T13:02:56;4.03;;;3.63;;
16270;SDS011;8243;49.048;8.396;2023-04-25T13:05:22;4.80;;;3.70;;
16270;SDS011;8243;49.048;8.396;2023-04-25T13:07:47;4.10;;;3.70;;
16270;SDS011;8243;49.048;8.396;2023-04-25T13:10:13;5.33;;;3.60;;
16270;SDS011;8243;49.048;8.396;2023-04-25T13:12:39;5.00;;;3.37;;
16270;SDS011;8243;49.048;8.396;2023-04-25T13:15:05;12.20;;;3.77;;
16270;SDS011;8243;49.048;8.396;2023-04-25T13:17:31;3.80;;;3.50;;
16270;SDS011;8243;49.048;8.396;2023-04-25T13:19:57;4.37;;;3.20;;
16270;SDS011;8243;49.048;8.396;2023-04-25T13:22:22;3.70;;;3.40;;
16270;SDS011;8243;49.048;8.396;2023-04-25T13:24:48;3.03;;;2.73;;
16270;SDS011;8243;49.048;8.396;2023-04-25T13:27:13;3.23;;;2.80;;
16270;SDS011;8243;49.048;8.396;2023-04-25T13:29:39;3.83;;;3.27;;
16270;SDS011;8243;49.048;8.396;2023-04-25T13:32:05;3.97;;;3.00;;
16270;SDS011;8243;49.048;8.396;2023-04-25T13:34:31;3.20;;;2.90;;
16270;SDS011;8243;49.048;8.396;2023-04-25T13:36:57;3.57;;;2.90;;
16270;SDS011;8243;49.048;8.396;2023-04-25T13:39:23;3.50;;;3.20;;
16270;SDS011;8243;49.048;8.396;2023-04-25T13:41:49;4.23;;;3.07;;
16270;SDS011;8243;49.048;8.396;2023-04-25T13:44:14;3.87;;;3.20;;
16270;SDS011;8243;49.048;8.396;2023-04-25T13:46:40;3.17;;;2.97;;
16270;SDS011;8243;49.048;8.396;2023-04-25T13:49:06;3.33;;;3.03;;
16270;SDS011;8243;49.048;8.396;2023-04-25T13:51:31;3.83;;;3.20;;
16270;SDS011;8243;49.048;8.396;2023-04-25T13:53:57;3.80;;;3.40;;
16270;SDS011;8243;49.048;8.396;2023-04-25T13:56:23;4.80;;;3.23;;
16270;SDS011;8243;49.048;8.396;2023-04-25T13:58:49;4.77;;;3.30;;
16270;SDS011;8243;49.048;8.396;2023-04-25T14:01:16;3.43;;;3.13;;
16270;SDS011;8243;49.048;8.396;2023-04-25T14:03:42;4.27;;;3.50;;
16270;SDS011;8243;49.048;8.396;2023-04-25T14:06:07;5.03;;;3.23;;
16270;SDS011;8243;49.048;8.396;2023-04-25T14:08:33;5.50;;;3.63;;
16270;SDS011;8243;49.048;8.396;2023-04-25T14:10:59;5.27;;;3.90;;
16270;SDS011;8243;49.048;8.396;2023-04-25T14:13:25;3.70;;;3.40;;
16270;SDS011;8243;49.048;8.396;2023-04-25T14:15:51;5.00;;;3.90;;
16270;SDS011;8243;49.048;8.396;2023-04-25T14:18:16;3.83;;;3.50;;
16270;SDS011;8243;49.048;8.396;2023-04-25T14:20:42;5.77;;;3.10;;
16270;SDS011;8243;49.048;8.396;2023-04-25T14:23:08;3.50;;;3.20;;
16270;SDS011;8243;49.048;8.396;2023-04-25T14:25:33;4.93;;;3.87;;
16270;SDS011;8243;49.048;8.396;2023-04-25T14:28:00;3.60;;;3.30;;
16270;SDS011;8243;49.048;8.396;2023-04-25T14:30:26;3.37;;;3.00;;
16270;SDS011;8243;49.048;8.396;2023-04-25T14:32:51;5.70;;;4.17;;
16270;SDS011;8243;49.048;8.396;2023-04-25T14:35:17;3.90;;;3.50;;
16270;SDS011;8243;49.048;8.396;2023-04-25T14:37:43;6.57;;;3.90;;
16270;SDS011;8243;49.048;8.396;2023-04-25T14:40:09;4.57;;;3.57;;
16270;SDS011;8243;49.048;8.396;2023-04-25T14:42:35;3.97;;;3.57;;
16270;SDS011;8243;49.048;8.396;2023-04-25T14:45:02;5.50;;;3.83;;
16270;SDS011;8243;49.048;8.396;2023-04-25T14:47:34;4.40;;;3.33;;
16270;SDS011;8243;49.048;8.396;2023-04-25T14:50:03;4.60;;;3.47;;
16270;SDS011;8243;49.048;8.396;2023-04-25T14:52:30;4.27;;;3.20;;
16270;SDS011;8243;49.048;8.396;2023-04-25T14:54:56;4.07;;;3.20;;
16270;SDS011;8243;49.048;8.396;2023-04-25T14:57:21;4.63;;;3.60;;
16270;SDS011;8243;49.048;8.396;2023-04-25T14:59:47;6.00;;;3.67;;
16270;SDS011;8243;49.048;8.396;2023-04-25T15:02:12;5.93;;;3.77;;
16270;SDS011;8243;49.048;8.396;2023-04-25T15:04:38;5.20;;;3.23;;
16270;SDS011;8243;49.048;8.396;2023-04-25T15:07:03;4.07;;;3.47;;
16270;SDS011;8243;49.048;8.396;2023-04-25T15:09:30;4.03;;;3.40;;